Dies, Texas
Current Conditions -  °F | °C
As of 2:35 PM on Thursday 29 Jan 2015 (Local Time) from KJAS Reporting Station
Clear Clear  
Wind Chill: 75°   Ceiling: Unl
Heat Index: 75°   Visibility: 10mi
Dew Point: 51°   Wind: 6mph
Humidity: 42%   Direction: 260°W
Pressure: 30.2"   Gusts: NA
Location:  30.7643°N, 94.4448°W
Report Text: KJAS 292035Z AUTO 26005KT 10SM CLR 24/10 A3020 RMK AO2 T02400103
Loading
Personal Weather Stations






























Interactive Weather Map New forecast layout! Learn more

10-Day Weather Forecast

Advertisements
Track Severe Weather on mobile